Time;durP1;ratioP1;P1;durP2;ratioP2;P2;SDS_P1;SDS_P2;PMS_P1;PMS_P2;Temp;Humidity;BMP_temperature;BMP_pressure;BME280_temperature;BME280_humidity;BME280_pressure;Samples;Min_cycle;Max_cycle;Signal;HPM_P1;HPM_P2
2021/03/23 00:01:27;;;;;;;21.93;12.58;;;;;;;2.84;98.26;100228.86;1759685;81;21286;-56
2021/03/23 00:03:55;;;;;;;21.97;12.80;;;;;;;2.81;98.11;100223.17;1776714;80;21484;-56
2021/03/23 00:06:26;;;;;;;21.82;12.30;;;;;;;2.78;97.84;100227.18;1762482;81;21109;-56
2021/03/23 00:09:01;;;;;;;22.85;13.85;;;;;;;2.77;97.69;100226.75;1776689;80;21055;-56
2021/03/23 00:11:35;;;;;;;23.00;13.00;;;;;;;2.76;97.37;100227.62;1762432;81;21373;-57
2021/03/23 00:14:06;;;;;;;26.25;14.18;;;;;;;2.76;96.93;100228.94;1776618;80;21135;-57
2021/03/23 00:16:37;;;;;;;27.15;14.30;;;;;;;2.74;95.84;100238.67;1769946;80;21165;-56
2021/03/23 00:19:05;;;;;;;27.77;15.58;;;;;;;2.71;95.44;100241.36;1795253;80;21154;-56
2021/03/23 00:21:33;;;;;;;30.50;15.90;;;;;;;2.71;95.76;100242.69;1795258;80;21146;-57
2021/03/23 00:24:01;;;;;;;27.60;15.60;;;;;;;2.71;95.57;100245.33;1795299;80;21573;-55
2021/03/23 00:26:29;;;;;;;30.35;16.37;;;;;;;2.70;95.42;100241.82;1795146;80;21146;-56
2021/03/23 00:28:57;;;;;;;30.00;15.98;;;;;;;2.70;94.50;100247.12;1795210;80;21142;-57
2021/03/23 00:31:30;;;;;;;33.13;18.17;;;;;;;2.67;93.88;100255.09;1795202;79;21118;-57
2021/03/23 00:34:01;;;;;;;38.60;20.12;;;;;;;2.64;92.65;100250.27;1795459;80;21466;-56
2021/03/23 00:36:37;;;;;;;32.30;17.30;;;;;;;2.62;92.16;100265.29;1795276;80;22232;-56
2021/03/23 00:39:08;;;;;;;35.10;17.25;;;;;;;2.60;91.67;100248.55;1795098;80;21150;-57
2021/03/23 00:41:38;;;;;;;33.48;17.90;;;;;;;2.58;91.40;100261.36;1795168;80;21063;-57
2021/03/23 00:44:08;;;;;;;31.80;17.95;;;;;;;2.56;91.48;100259.17;1788523;80;21050;-57
2021/03/23 00:46:36;;;;;;;30.75;16.85;;;;;;;2.55;91.56;100248.16;1774450;80;21080;-56
2021/03/23 00:49:04;;;;;;;36.90;19.35;;;;;;;2.54;91.24;100258.31;1760281;81;21449;-57
2021/03/23 00:51:33;;;;;;;35.33;19.73;;;;;;;2.51;91.06;100251.70;1774229;80;21162;-57
2021/03/23 00:54:01;;;;;;;38.45;20.08;;;;;;;2.49;90.83;100247.34;1760312;81;21105;-56
2021/03/23 00:56:29;;;;;;;34.53;18.32;;;;;;;2.47;90.86;100253.09;1774406;80;21167;-56
2021/03/23 00:58:57;;;;;;;31.85;19.37;;;;;;;2.41;90.53;100249.59;1760256;81;21041;-57
2021/03/23 01:01:25;;;;;;;27.50;15.65;;;;;;;2.38;90.34;100255.38;1774399;80;21771;-56
2021/03/23 01:03:53;;;;;;;32.58;17.90;;;;;;;2.37;90.18;100254.94;1760305;81;21460;-56
2021/03/23 01:06:21;;;;;;;31.10;16.70;;;;;;;2.36;90.22;100253.19;1774419;80;21158;-56
2021/03/23 01:08:49;;;;;;;32.08;16.73;;;;;;;2.35;89.90;100267.31;1760223;81;21113;-56
2021/03/23 01:11:16;;;;;;;31.30;17.00;;;;;;;2.34;89.96;100257.63;1774441;80;21119;-56
2021/03/23 01:13:44;;;;;;;32.23;17.23;;;;;;;2.32;89.86;100265.56;1760248;81;21702;-56
2021/03/23 01:16:12;;;;;;;37.95;18.75;;;;;;;2.29;90.05;100269.09;1774618;80;21158;-57
2021/03/23 01:18:40;;;;;;;29.50;17.27;;;;;;;2.28;89.93;100272.63;1786830;80;21135;-56
2021/03/23 01:21:10;;;;;;;30.12;17.52;;;;;;;2.24;89.81;100265.62;1786698;80;21195;-56
2021/03/23 01:23:39;;;;;;;33.67;17.40;;;;;;;2.22;90.04;100274.02;1786844;80;21061;-56
2021/03/23 01:26:06;;;;;;;32.80;17.75;;;;;;;2.20;90.05;100274.47;1786817;80;21660;-56
2021/03/23 01:28:34;;;;;;;34.10;17.35;;;;;;;2.18;90.26;100272.29;1786759;80;21119;-55
2021/03/23 01:31:02;;;;;;;34.73;18.50;;;;;;;2.16;90.50;100276.72;1786851;80;21139;-56
2021/03/23 01:33:30;;;;;;;36.98;19.80;;;;;;;2.12;90.79;100281.61;1786768;80;21159;-57
2021/03/23 01:35:57;;;;;;;34.20;18.52;;;;;;;2.08;91.14;100266.20;1786827;80;21072;-56
2021/03/23 01:38:25;;;;;;;34.23;18.35;;;;;;;2.07;91.46;100284.70;1786824;80;21360;-56
2021/03/23 01:40:53;;;;;;;32.60;18.05;;;;;;;2.04;91.74;100283.41;1786796;80;21115;-57
2021/03/23 01:43:28;;;;;;;38.40;19.85;;;;;;;2.00;92.03;100283.44;1786996;80;21151;-57
2021/03/23 01:45:57;;;;;;;34.90;17.82;;;;;;;1.96;92.12;100292.28;1785352;80;21146;-57
2021/03/23 01:48:30;;;;;;;38.35;19.70;;;;;;;1.94;92.26;100280.84;1785401;80;21594;-56
2021/03/23 01:51:04;;;;;;;41.83;19.87;;;;;;;1.92;92.46;100282.62;1785245;80;21379;-56
2021/03/23 01:53:47;;;;;;;33.92;18.73;;;;;;;1.90;92.57;100287.05;1785087;80;21134;-56
2021/03/23 01:56:16;;;;;;;36.10;19.12;;;;;;;1.88;92.56;100297.19;1762592;81;21037;-56
2021/03/23 01:58:47;;;;;;;40.75;19.87;;;;;;;1.85;92.62;100292.36;1776841;80;21614;-56
2021/03/23 02:01:18;;;;;;;31.68;15.18;;;;;;;1.82;92.66;100301.63;1762538;81;21064;-56
2021/03/23 02:03:48;;;;;;;35.10;18.12;;;;;;;1.82;92.73;100301.63;1776614;80;21364;-57
2021/03/23 02:06:36;;;;;;;38.85;16.80;;;;;;;1.80;92.67;100304.73;1762574;81;21543;-57
2021/03/23 02:09:07;;;;;;;30.25;16.55;;;;;;;1.82;92.62;100304.70;1776662;80;21126;-56
2021/03/23 02:11:38;;;;;;;34.80;18.02;;;;;;;1.81;92.32;100307.81;1762632;81;21061;-56
2021/03/23 02:14:12;;;;;;;34.25;19.35;;;;;;;1.83;92.22;100323.22;1776712;80;21170;-56
2021/03/23 02:16:39;;;;;;;30.08;16.62;;;;;;;1.83;92.11;100306.46;1771348;80;21190;-56
2021/03/23 02:19:08;;;;;;;32.93;17.05;;;;;;;1.83;91.82;100306.46;1795371;80;21474;-56
2021/03/23 02:21:35;;;;;;;32.60;17.23;;;;;;;1.84;91.70;100305.57;1795387;80;21481;-56
2021/03/23 02:24:03;;;;;;;30.30;16.60;;;;;;;1.87;91.68;100306.87;1795353;80;21192;-56
2021/03/23 02:26:34;;;;;;;30.85;16.75;;;;;;;1.89;91.90;100309.09;1795395;80;21114;-56
2021/03/23 02:29:16;;;;;;;29.65;15.72;;;;;;;1.90;92.33;100316.13;1795252;79;21696;-56
2021/03/23 02:31:51;;;;;;;30.48;12.58;;;;;;;1.91;92.42;100321.85;1795296;80;21106;-56
2021/03/23 02:34:22;;;;;;;26.25;13.68;;;;;;;1.89;90.50;100323.62;1795440;80;21471;-56
2021/03/23 02:36:50;;;;;;;32.17;15.68;;;;;;;1.89;89.69;100335.53;1795349;79;21491;-55
2021/03/23 02:39:25;;;;;;;23.65;12.03;;;;;;;1.90;88.79;100324.06;1795421;80;21479;-55
2021/03/23 02:41:54;;;;;;;25.32;12.00;;;;;;;1.93;88.46;100348.27;1795556;80;21533;-56
2021/03/23 02:44:22;;;;;;;22.50;12.28;;;;;;;1.92;87.94;100320.96;1784743;80;21145;-56
2021/03/23 02:46:50;;;;;;;23.30;11.10;;;;;;;1.93;87.89;100326.68;1774529;80;21626;-55
2021/03/23 02:49:18;;;;;;;26.85;13.85;;;;;;;1.95;87.56;100339.45;1760415;81;21116;-56
2021/03/23 02:51:49;;;;;;;29.25;12.95;;;;;;;1.95;87.60;100348.70;1774478;80;21135;-55
2021/03/23 02:54:17;;;;;;;30.27;14.73;;;;;;;1.96;87.24;100341.63;1760338;81;21380;-56
2021/03/23 02:56:45;;;;;;;25.65;14.20;;;;;;;1.95;86.71;100353.98;1774413;80;21065;-56
2021/03/23 02:59:13;;;;;;;25.80;12.20;;;;;;;1.96;86.83;100332.37;1760416;81;21145;-56
2021/03/23 03:01:40;;;;;;;19.32;11.10;;;;;;;1.96;86.99;100346.48;1774419;80;21182;-56
2021/03/23 03:04:08;;;;;;;22.73;10.32;;;;;;;1.96;86.88;100349.56;1760251;81;21076;-55
2021/03/23 03:06:36;;;;;;;20.35;11.15;;;;;;;1.92;86.94;100340.80;1774521;80;21367;-56
2021/03/23 03:09:04;;;;;;;26.97;10.25;;;;;;;1.89;87.06;100354.03;1760244;81;21116;-56
2021/03/23 03:11:31;;;;;;;25.68;10.93;;;;;;;1.84;86.61;100349.19;1774486;80;21146;-56
2021/03/23 03:13:59;;;;;;;18.95;9.70;;;;;;;1.79;86.81;100344.38;1760358;81;21061;-56
2021/03/23 03:16:27;;;;;;;18.85;9.53;;;;;;;1.74;86.55;100352.78;1766645;80;21060;-56
2021/03/23 03:18:56;;;;;;;18.98;10.45;;;;;;;1.71;86.49;100353.66;1795184;79;20935;-56
2021/03/23 03:21:24;;;;;;;20.25;10.13;;;;;;;1.66;86.07;100362.95;1795220;79;21122;-55
2021/03/23 03:23:53;;;;;;;25.32;11.50;;;;;;;1.63;85.41;100352.37;1795455;80;22320;-55
2021/03/23 03:26:20;;;;;;;31.12;14.50;;;;;;;1.64;85.48;100351.48;1795382;80;21192;-57
2021/03/23 03:28:52;;;;;;;24.07;12.55;;;;;;;1.64;85.31;100352.80;1795282;80;21134;-56
2021/03/23 03:31:22;;;;;;;14.33;7.12;;;;;;;1.66;84.81;100358.99;1795301;80;21490;-56
2021/03/23 03:33:52;;;;;;;18.90;7.53;;;;;;;1.65;83.82;100367.78;1795173;80;21118;-57
2021/03/23 03:36:22;;;;;;;11.43;6.25;;;;;;;1.65;84.05;100360.31;1795324;80;21609;-56
2021/03/23 03:38:49;;;;;;;11.60;6.35;;;;;;;1.63;84.21;100369.55;1795175;80;21503;-56
2021/03/23 03:41:17;;;;;;;13.72;6.40;;;;;;;1.60;84.20;100366.92;1795233;80;21067;-56
2021/03/23 03:43:45;;;;;;;11.55;4.95;;;;;;;1.58;84.28;100359.45;1793583;80;21353;-56
2021/03/23 03:46:13;;;;;;;11.35;5.78;;;;;;;1.53;84.06;100362.56;1760237;81;21152;-56
2021/03/23 03:48:41;;;;;;;10.55;5.08;;;;;;;1.49;83.96;100366.97;1760308;81;21192;-56
2021/03/23 03:51:08;;;;;;;11.70;4.92;;;;;;;1.44;83.64;100363.47;1760308;81;21132;-56
2021/03/23 03:53:36;;;;;;;7.62;3.45;;;;;;;1.41;83.29;100360.38;1760347;81;21029;-56
2021/03/23 03:56:05;;;;;;;10.08;3.47;;;;;;;1.38;82.62;100364.36;1760299;81;21155;-55
2021/03/23 03:58:33;;;;;;;12.23;4.45;;;;;;;1.37;82.38;100361.29;1760309;81;21173;-56
2021/03/23 04:01:00;;;;;;;11.88;3.90;;;;;;;1.39;81.98;100382.43;1760257;81;21165;-55
2021/03/23 04:03:29;;;;;;;7.83;3.22;;;;;;;1.38;81.35;100385.50;1760238;81;21160;-55
2021/03/23 04:05:59;;;;;;;9.35;3.30;;;;;;;1.39;81.11;100389.89;1760413;81;21530;-57
2021/03/23 04:08:30;;;;;;;6.47;2.90;;;;;;;1.40;80.51;100382.86;1760361;81;21470;-56
2021/03/23 04:11:01;;;;;;;7.00;2.75;;;;;;;1.40;80.42;100371.84;1760105;81;20957;-55
2021/03/23 04:13:28;;;;;;;8.23;3.37;;;;;;;1.41;79.89;100374.05;1760382;81;21474;-57
2021/03/23 04:15:56;;;;;;;7.10;2.87;;;;;;;1.40;79.50;100392.97;1760315;81;21058;-56
2021/03/23 04:18:25;;;;;;;4.90;2.87;;;;;;;1.40;78.88;100403.54;1794917;80;21102;-56
2021/03/23 04:20:55;;;;;;;7.65;2.90;;;;;;;1.42;78.44;100396.48;1795180;80;21193;-56
2021/03/23 04:23:29;;;;;;;8.35;3.00;;;;;;;1.42;77.86;100399.13;1795369;80;21650;-57
2021/03/23 04:25:57;;;;;;;8.28;2.62;;;;;;;1.42;77.89;100399.13;1795204;80;21074;-57
2021/03/23 04:28:26;;;;;;;8.33;2.80;;;;;;;1.41;77.34;100398.69;1795214;80;21494;-57
2021/03/23 04:30:54;;;;;;;9.60;4.15;;;;;;;1.44;77.05;100396.49;1795225;80;21126;-56
2021/03/23 04:33:24;;;;;;;9.48;3.98;;;;;;;1.45;76.78;100400.03;1795211;79;21255;-57
2021/03/23 04:35:56;;;;;;;6.78;2.65;;;;;;;1.48;76.33;100395.59;1795151;79;21570;-56
2021/03/23 04:38:32;;;;;;;4.85;2.12;;;;;;;1.52;76.14;100408.37;1795169;80;21129;-56
2021/03/23 04:41:02;;;;;;;4.25;1.80;;;;;;;1.54;75.10;100414.52;1795182;79;21059;-57
2021/03/23 04:43:33;;;;;;;6.62;2.77;;;;;;;1.56;75.37;100439.17;1795242;79;21133;-56
2021/03/23 04:46:01;;;;;;;6.33;2.35;;;;;;;1.58;74.94;100409.66;1761961;80;21395;-56
2021/03/23 04:48:28;;;;;;;5.10;2.12;;;;;;;1.62;74.87;100410.08;1762108;81;21070;-56
2021/03/23 04:50:58;;;;;;;7.22;2.62;;;;;;;1.73;74.84;100426.36;1762135;81;21093;-56
2021/03/23 04:53:33;;;;;;;5.37;1.82;;;;;;;1.87;73.82;100428.48;1762165;81;21041;-56
2021/03/23 04:56:02;;;;;;;6.25;2.62;;;;;;;1.99;72.96;100435.05;1762195;81;21149;-55
2021/03/23 04:58:30;;;;;;;7.67;2.50;;;;;;;2.10;72.07;100431.03;1762117;81;21201;-55
2021/03/23 05:00:58;;;;;;;4.92;2.20;;;;;;;2.20;71.89;100448.16;1762102;81;21086;-56
2021/03/23 05:03:30;;;;;;;8.75;2.95;;;;;;;2.25;71.68;100445.08;1762037;81;21078;-57
2021/03/23 05:06:03;;;;;;;8.13;3.35;;;;;;;2.27;71.68;100442.83;1762244;81;21494;-56
2021/03/23 05:08:28;;;;;;;9.08;2.75;;;;;;;2.28;71.24;100437.97;1762012;81;21060;-56
2021/03/23 05:10:57;;;;;;;7.00;2.10;;;;;;;2.25;70.38;100445.94;1762112;81;21203;-55
2021/03/23 05:13:25;;;;;;;7.70;2.02;;;;;;;2.23;70.26;100441.09;1762180;81;21073;-55
2021/03/23 05:15:53;;;;;;;8.10;2.12;;;;;;;2.35;70.15;100453.84;1762477;81;21548;-56
2021/03/23 05:18:20;;;;;;;6.85;1.90;;;;;;;2.56;69.95;100456.34;1794146;80;21471;-56
2021/03/23 05:20:48;;;;;;;3.98;2.02;;;;;;;2.60;69.10;100461.16;1795321;79;21182;-56
2021/03/23 05:23:16;;;;;;;5.15;2.12;;;;;;;2.52;68.58;100447.97;1795413;79;21707;-56
2021/03/23 05:25:44;;;;;;;3.65;1.90;;;;;;;2.40;68.31;100462.62;1795285;80;20987;-57
2021/03/23 05:28:12;;;;;;;7.15;2.02;;;;;;;2.30;68.37;100464.44;1795353;80;21165;-55
2021/03/23 05:30:40;;;;;;;5.75;2.37;;;;;;;2.24;68.46;100461.38;1795355;79;21149;-56
2021/03/23 05:33:09;;;;;;;7.30;1.85;;;;;;;2.19;68.47;100472.43;1795341;80;21137;-56
2021/03/23 05:35:37;;;;;;;5.03;1.80;;;;;;;2.16;69.24;100461.87;1795353;80;21400;-57
2021/03/23 05:38:05;;;;;;;1.65;0.98;;;;;;;2.16;68.51;100459.22;1795341;80;21094;-57
2021/03/23 05:40:36;;;;;;;5.28;1.80;;;;;;;2.10;67.29;100469.80;1795404;80;21558;-56
2021/03/23 05:43:32;;;;;;;3.52;1.67;;;;;;;2.08;67.59;100458.36;1795236;80;21141;-56
2021/03/23 05:46:14;;;;;;;3.80;1.47;;;;;;;2.05;67.32;100475.56;1761250;80;21173;-56
2021/03/23 05:49:24;;;;;;;8.78;1.65;;;;;;;2.02;67.18;100463.69;1760440;81;21354;-56
2021/03/23 05:52:09;;;;;;;4.40;2.25;;;;;;;2.04;68.04;100457.95;1754944;81;21143;-56
2021/03/23 05:55:02;;;;;;;8.35;2.45;;;;;;;2.10;68.33;100477.74;1760408;81;20931;-57
2021/03/23 05:57:40;;;;;;;7.65;1.80;;;;;;;2.13;67.55;100479.08;1760443;81;21138;-56
2021/03/23 06:00:28;;;;;;;6.30;1.70;;;;;;;2.16;67.47;100485.67;1760444;81;21065;-56
2021/03/23 06:03:29;;;;;;;3.98;1.90;;;;;;;2.19;67.71;100498.88;1760246;81;21493;-57
2021/03/23 06:06:02;;;;;;;7.37;1.90;;;;;;;2.24;67.38;100481.22;1760364;81;21148;-56
2021/03/23 06:08:33;;;;;;;5.30;1.90;;;;;;;2.28;67.18;100488.70;1760435;81;21125;-57
2021/03/23 06:11:23;;;;;;;4.22;1.70;;;;;;;2.33;66.77;100487.37;1760284;81;21165;-56
2021/03/23 06:14:27;;;;;;;7.95;1.50;;;;;;;2.32;65.44;100498.37;1760362;81;21131;-57
2021/03/23 06:17:06;;;;;;;4.65;1.52;;;;;;;2.35;66.62;100498.81;1773208;80;21544;-57
2021/03/23 06:20:04;;;;;;;4.90;1.60;;;;;;;2.36;65.77;100508.05;1795376;79;21558;-56
2021/03/23 06:23:22;;;;;;;5.80;2.08;;;;;;;2.39;65.77;100511.14;1795271;80;21114;-57
2021/03/23 06:26:27;;;;;;;4.35;2.15;;;;;;;2.38;66.15;100512.89;1795301;80;21113;-57
2021/03/23 06:29:05;;;;;;;3.07;1.80;;;;;;;2.38;66.36;100510.24;1795569;80;21031;-57
2021/03/23 06:31:59;;;;;;;5.47;2.15;;;;;;;2.38;65.29;100535.84;1785131;79;22000;-56
2021/03/23 06:34:34;;;;;;;4.80;1.87;;;;;;;2.37;65.30;100532.77;1755394;81;21104;-56
2021/03/23 06:37:04;;;;;;;6.58;2.05;;;;;;;2.35;65.39;100528.78;1755415;81;21171;-50
2021/03/23 06:39:31;;;;;;;9.15;2.12;;;;;;;2.40;65.60;100526.98;1755265;81;21176;-49
2021/03/23 06:42:01;;;;;;;5.10;2.10;;;;;;;2.52;65.11;100526.05;1755517;81;22353;-50
2021/03/23 06:44:37;;;;;;;4.67;2.12;;;;;;;2.68;64.26;100528.19;1766071;80;21190;-50
2021/03/23 06:47:05;;;;;;;10.23;3.40;;;;;;;2.81;63.12;100531.64;1786443;80;21124;-50
2021/03/23 06:49:38;;;;;;;4.00;1.85;;;;;;;2.99;63.32;100536.38;1769423;80;21137;-50
2021/03/23 06:52:11;;;;;;;6.28;2.87;;;;;;;3.19;62.20;100527.38;1755481;81;21068;-50
2021/03/23 06:54:40;;;;;;;3.80;1.72;;;;;;;3.46;61.13;100544.82;1755377;81;21144;-48
2021/03/23 06:57:16;;;;;;;4.42;1.72;;;;;;;3.86;58.51;100528.95;1777486;80;21203;-49
2021/03/23 07:00:16;;;;;;;6.83;1.98;;;;;;;4.17;56.80;100533.93;1786616;80;21069;-49
2021/03/23 07:02:46;;;;;;;13.22;5.90;;;;;;;4.23;55.73;100530.33;1786128;80;21097;-50
2021/03/23 07:05:21;;;;;;;10.80;4.20;;;;;;;4.11;55.30;100530.03;1782075;79;21146;-49
2021/03/23 07:07:57;;;;;;;9.63;3.45;;;;;;;4.04;55.94;100530.98;1780745;80;21038;-49
2021/03/23 07:10:30;;;;;;;15.20;5.87;;;;;;;4.03;55.74;100527.89;1781112;80;22404;-49
2021/03/23 07:13:06;;;;;;;10.13;4.07;;;;;;;4.03;55.47;100528.79;1872946;76;22743;-50
2021/03/23 07:15:40;;;;;;;11.12;5.80;;;;;;;3.97;54.89;100533.70;1840506;77;21006;-50
2021/03/23 07:18:20;;;;;;;17.60;8.40;;;;;;;4.00;55.15;100541.63;1829497;78;21011;-50
2021/03/23 07:20:50;;;;;;;7.72;3.02;;;;;;;4.09;55.11;100535.34;1811653;78;21095;-50
2021/03/23 07:23:40;;;;;;;6.28;3.15;;;;;;;4.15;52.69;100552.52;1808095;78;21156;-50
2021/03/23 07:26:27;;;;;;;11.88;5.80;;;;;;;4.13;53.12;100526.91;1807563;79;21135;-49
2021/03/23 07:29:29;;;;;;;7.78;3.20;;;;;;;4.14;54.13;100529.99;1807682;79;21124;-50
2021/03/23 07:32:12;;;;;;;4.87;2.35;;;;;;;4.22;55.18;100537.41;1807620;79;21648;-50
2021/03/23 07:34:55;;;;;;;9.80;3.40;;;;;;;4.37;54.22;100536.33;1772706;76;21203;-51
2021/03/23 07:37:45;;;;;;;8.85;2.30;;;;;;;4.45;53.02;100546.85;1776070;80;21080;-49
2021/03/23 07:40:40;;;;;;;9.58;1.90;;;;;;;4.48;52.28;100533.53;1777531;80;21053;-49
2021/03/23 07:43:27;;;;;;;7.95;2.27;;;;;;;4.49;50.60;100528.65;1780452;80;21613;-49
2021/03/23 07:46:19;;;;;;;3.47;1.45;;;;;;;4.40;51.12;100534.09;1776977;80;21251;-49
2021/03/23 07:49:11;;;;;;;3.60;2.02;;;;;;;4.20;49.74;100535.65;1776791;80;21213;-51
2021/03/23 07:51:43;;;;;;;15.30;6.28;;;;;;;4.01;49.33;100519.97;1756977;81;21173;-50
2021/03/23 07:54:32;;;;;;;8.20;2.80;;;;;;;3.90;49.65;100541.31;1776937;80;21076;-49
2021/03/23 07:57:28;;;;;;;8.30;2.30;;;;;;;3.86;48.82;100536.91;1777202;80;21139;-49
2021/03/23 08:00:26;;;;;;;6.25;1.72;;;;;;;3.94;47.25;100529.77;1757122;81;21762;-50
2021/03/23 08:03:35;;;;;;;3.35;1.50;;;;;;;4.07;47.75;100526.96;1777115;80;21115;-49
2021/03/23 08:06:26;;;;;;;3.90;1.50;;;;;;;4.27;46.35;100518.31;1872925;76;22934;-49
2021/03/23 08:09:33;;;;;;;4.72;3.20;;;;;;;4.32;47.10;100504.13;1840887;78;21105;-49
2021/03/23 08:12:31;;;;;;;12.25;3.92;;;;;;;4.41;47.33;100511.95;1829681;76;21179;-49
2021/03/23 08:15:17;;;;;;;6.90;1.52;;;;;;;4.46;46.97;100532.67;1813555;78;21088;-50
2021/03/23 08:18:36;;;;;;;2.58;1.25;;;;;;;4.41;45.68;100533.19;1826115;78;21556;-50
2021/03/23 08:21:42;;;;;;;3.65;1.50;;;;;;;4.33;44.71;100511.19;1829728;78;21164;-50
2021/03/23 08:24:39;;;;;;;11.65;3.20;;;;;;;4.26;46.10;100490.02;1825057;78;21048;-51
2021/03/23 08:27:43;;;;;;;10.10;2.20;;;;;;;4.24;47.59;100497.12;1806101;79;21749;-49
2021/03/23 08:30:37;;;;;;;9.28;2.52;;;;;;;4.29;46.97;100485.13;1792829;79;21152;-49
2021/03/23 08:33:17;;;;;;;6.75;3.17;;;;;;;4.30;45.90;100513.42;1823376;78;21203;-49
2021/03/23 08:36:10;;;;;;;5.72;1.85;;;;;;;4.26;45.25;100495.32;1791659;79;21611;-50
2021/03/23 08:39:04;;;;;;;12.93;2.17;;;;;;;4.33;45.24;100511.19;1796644;78;21225;-49
2021/03/23 08:41:45;;;;;;;7.28;1.90;;;;;;;4.40;45.65;100483.66;1829407;78;21203;-50
2021/03/23 08:44:41;;;;;;;6.05;2.35;;;;;;;4.54;44.52;100516.21;1821140;78;21138;-50
2021/03/23 08:47:55;;;;;;;5.03;2.42;;;;;;;4.57;42.83;100500.23;1803977;78;21154;-48
2021/03/23 08:50:39;;;;;;;7.40;1.95;;;;;;;4.62;41.37;100500.61;1803849;78;21138;-49
2021/03/23 08:53:36;;;;;;;5.75;1.90;;;;;;;4.65;40.79;100504.55;1764183;78;21138;-49
2021/03/23 08:56:05;;;;;;;9.08;2.75;;;;;;;4.66;41.69;100489.94;1823514;78;21697;-50
2021/03/23 09:01:40;;;;;;;8.35;2.37;;;;;;;4.75;42.18;100494.20;1825462;78;21198;-50
2021/03/23 09:04:18;;;;;;;4.55;1.87;;;;;;;4.77;41.63;100499.07;1825341;78;21179;-50
2021/03/23 09:06:50;;;;;;;4.65;2.17;;;;;;;4.76;41.39;100466.77;1822590;78;21052;-50
2021/03/23 09:09:21;;;;;;;6.58;1.62;;;;;;;4.77;40.17;100497.73;1758772;81;21276;-50
2021/03/23 09:12:41;;;;;;;7.53;1.32;;;;;;;4.81;40.78;100492.80;1749736;82;21180;-49
2021/03/23 09:15:22;;;;;;;23.67;4.15;;;;;;;4.73;40.91;100460.15;1757500;80;21053;-49
2021/03/23 09:18:15;;;;;;;7.90;1.55;;;;;;;4.73;40.91;100460.15;1757825;81;21080;-50
2021/03/23 09:20:49;;;;;;;10.28;1.90;;;;;;;4.79;39.85;100489.30;1749947;82;21109;-51
2021/03/23 09:23:24;;;;;;;9.08;1.40;;;;;;;4.78;40.50;100485.33;1749901;81;21205;-49
2021/03/23 09:26:00;;;;;;;7.62;1.22;;;;;;;4.79;39.15;100474.69;1758119;81;21124;-49
2021/03/23 09:31:13;;;;;;;3.67;1.20;;;;;;;4.82;39.13;100486.59;1756338;80;21569;-50
2021/03/23 09:33:50;;;;;;;1.62;0.82;;;;;;;4.79;37.90;100468.48;1778311;80;21062;-50
2021/03/23 09:36:35;;;;;;;4.10;1.30;;;;;;;4.72;37.78;100461.05;1780886;80;21415;-48
2021/03/23 09:39:21;;;;;;;3.92;0.98;;;;;;;4.73;38.97;100473.43;1749553;80;21147;-49
2021/03/23 09:42:15;;;;;;;3.75;1.00;;;;;;;4.75;37.27;100471.63;1778363;79;21192;-49
2021/03/23 09:44:46;;;;;;;11.88;2.95;;;;;;;4.73;37.23;100452.18;1766019;80;21161;-50
2021/03/23 09:47:52;;;;;;;3.83;1.22;;;;;;;4.75;38.69;100459.67;1749808;81;21112;-49
2021/03/23 09:50:54;;;;;;;7.15;2.98;;;;;;;4.85;37.52;100454.66;1742985;80;21197;-49
2021/03/23 09:53:33;;;;;;;4.90;1.30;;;;;;;4.85;37.52;100454.66;1757930;81;21064;-49
2021/03/23 09:56:18;;;;;;;2.95;1.35;;;;;;;4.84;36.83;100458.66;1756625;81;21055;-49
2021/03/23 09:58:46;;;;;;;5.30;1.42;;;;;;;4.85;36.77;100444.03;1752649;81;21146;-50
2021/03/23 10:01:23;;;;;;;5.45;1.37;;;;;;;4.85;37.44;100424.11;1749850;82;21137;-49
2021/03/23 10:03:52;;;;;;;3.72;1.32;;;;;;;4.89;37.96;100427.61;1748770;81;22267;-58
2021/03/23 10:06:30;;;;;;;4.47;2.50;;;;;;;4.95;37.80;100419.95;1774224;80;21082;-57
2021/03/23 10:09:06;;;;;;;9.33;3.20;;;;;;;4.98;37.28;100423.91;1764489;80;21493;-57
2021/03/23 10:11:42;;;;;;;14.58;1.70;;;;;;;5.02;37.71;100426.94;1763802;81;21126;-57
2021/03/23 10:14:30;;;;;;;16.17;1.92;;;;;;;5.07;37.62;100438.36;1786945;80;21106;-58
2021/03/23 10:17:12;;;;;;;3.20;0.93;;;;;;;5.10;37.35;100436.97;1762948;80;21159;-57
2021/03/23 10:19:50;;;;;;;4.87;1.57;;;;;;;5.06;35.60;100420.66;1786672;80;21191;-57
2021/03/23 10:22:32;;;;;;;6.90;1.45;;;;;;;5.06;35.60;100420.66;1770875;80;21487;-57
2021/03/23 10:25:00;;;;;;;8.25;1.22;;;;;;;5.05;36.32;100409.61;1755482;81;21186;-57
2021/03/23 10:27:37;;;;;;;2.58;0.82;;;;;;;5.05;36.32;100409.61;1763870;80;21117;-56
2021/03/23 10:30:31;;;;;;;4.15;1.32;;;;;;;5.06;35.01;100410.03;1769695;80;22277;-57
2021/03/23 10:33:18;;;;;;;10.08;1.35;;;;;;;5.03;35.87;100427.37;1775941;79;21180;-58
2021/03/23 10:35:56;;;;;;;4.72;1.37;;;;;;;5.03;35.81;100394.16;1760637;80;21161;-57
2021/03/23 10:38:36;;;;;;;6.75;1.87;;;;;;;5.06;35.82;100379.48;1766790;80;21129;-57
2021/03/23 10:41:24;;;;;;;8.23;1.65;;;;;;;5.15;36.08;100397.90;1763758;80;21624;-56
2021/03/23 10:44:12;;;;;;;9.18;2.60;;;;;;;5.28;35.96;100385.72;1776744;80;21136;-57
2021/03/23 10:46:43;;;;;;;3.60;1.62;;;;;;;5.37;36.26;100376.70;1764491;80;21136;-57
2021/03/23 10:49:26;;;;;;;5.87;2.60;;;;;;;5.49;34.62;100370.27;1762333;80;21046;-57
2021/03/23 10:52:01;;;;;;;10.98;2.52;;;;;;;5.45;34.62;100371.66;1770083;80;21212;-57
2021/03/23 10:54:35;;;;;;;3.75;1.30;;;;;;;5.44;35.51;100384.53;1769994;80;21149;-56
2021/03/23 10:57:30;;;;;;;4.40;1.00;;;;;;;5.49;35.14;100372.92;1769388;80;21381;-57
2021/03/23 11:00:17;;;;;;;7.00;1.25;;;;;;;5.47;35.29;100359.64;1772440;80;21164;-56
2021/03/23 11:02:45;;;;;;;12.93;1.37;;;;;;;5.48;35.23;100381.81;1755603;81;21665;-57
2021/03/23 11:05:17;;;;;;;3.35;1.50;;;;;;;5.48;35.02;100350.76;1759737;79;21148;-56
2021/03/23 11:07:59;;;;;;;1.85;1.00;;;;;;;5.52;34.01;100348.45;1770194;80;21219;-57
2021/03/23 11:10:33;;;;;;;2.45;1.00;;;;;;;5.52;34.95;100362.22;1752966;80;21467;-57
2021/03/23 11:13:05;;;;;;;4.85;1.20;;;;;;;5.52;34.75;100356.91;1726984;80;21118;-56
2021/03/23 11:15:43;;;;;;;15.20;2.85;;;;;;;5.49;34.37;100348.52;1744315;80;21121;-49
2021/03/23 11:18:24;;;;;;;12.75;1.62;;;;;;;5.49;35.09;100347.19;1737471;80;21525;-56
2021/03/23 11:20:55;;;;;;;6.08;1.40;;;;;;;5.53;35.06;100338.70;1767207;80;21439;-56
2021/03/23 11:23:41;;;;;;;3.45;0.85;;;;;;;5.58;34.58;100343.03;1761888;80;21309;-56
2021/03/23 11:26:14;;;;;;;6.15;1.90;;;;;;;5.55;34.75;100323.16;1789058;80;21082;-49
2021/03/23 11:28:44;;;;;;;;;;;;;;;5.58;35.58;100314.21;1792042;80;21146;-50
2021/03/23 11:31:16;;;;;;;5.72;1.77;;;;;;;5.69;34.77;100309.55;1780755;80;20231;-50
2021/03/23 11:33:47;;;;;;;2.67;0.90;;;;;;;5.74;34.75;100330.71;1739801;79;21609;-49
2021/03/23 11:36:15;;;;;;;7.22;1.12;;;;;;;5.76;34.77;100317.39;1816442;79;21688;-49
2021/03/23 11:38:42;;;;;;;7.78;1.85;;;;;;;5.77;34.72;100306.73;1805902;79;21180;-51
2021/03/23 11:41:22;;;;;;;4.12;1.10;;;;;;;5.84;34.23;100318.08;1800050;79;21050;-49
2021/03/23 11:43:54;;;;;;;3.72;1.30;;;;;;;5.84;34.23;100318.08;1795386;79;21471;-49
2021/03/23 11:46:26;;;;;;;6.80;1.30;;;;;;;5.85;34.27;100294.13;1756497;81;21054;-51
2021/03/23 11:49:07;;;;;;;10.45;2.62;;;;;;;5.83;33.99;100309.69;1768615;81;21429;-49
2021/03/23 11:51:40;;;;;;;3.20;1.10;;;;;;;5.87;34.28;100296.77;1745950;81;21126;-49
2021/03/23 11:54:09;;;;;;;7.05;1.45;;;;;;;5.92;33.50;100284.66;1783890;80;21488;-50
2021/03/23 11:56:37;;;;;;;4.85;1.30;;;;;;;5.91;33.97;100295.77;1783885;80;21108;-49
2021/03/23 11:59:05;;;;;;;6.15;1.57;;;;;;;6.07;33.23;100282.12;1771930;80;21536;-50
2021/03/23 12:01:34;;;;;;;5.50;1.50;;;;;;;6.07;33.23;100282.12;1749887;82;21640;-49
2021/03/23 12:04:03;;;;;;;7.50;2.27;;;;;;;6.10;33.33;100306.03;1747316;82;21152;-49
2021/03/23 12:06:36;;;;;;;11.08;1.98;;;;;;;6.12;33.78;100285.57;1757301;81;21108;-48
2021/03/23 12:09:19;;;;;;;6.37;1.32;;;;;;;6.21;33.66;100277.82;1766807;81;21139;-50
2021/03/23 12:12:13;;;;;;;7.83;2.00;;;;;;;6.21;33.08;100285.33;1766795;81;21128;-51
2021/03/23 12:15:00;;;;;;;5.95;1.82;;;;;;;6.25;33.13;100276.83;1766643;80;22414;-49